createdAt,value
2019-03-17T05:01:01.120Z,11.28
2019-03-17T05:02:00.995Z,11.13
2019-03-17T05:03:53.678Z,11.18
2019-03-17T05:04:53.543Z,11.18
2019-03-17T05:06:52.721Z,11.16
2019-03-17T05:07:46.092Z,11.13
2019-03-17T05:09:38.784Z,11.06
2019-03-17T05:10:38.650Z,11.08
2019-03-17T05:12:31.319Z,11.08
2019-03-17T05:13:31.205Z,11.06
2019-03-17T05:15:23.890Z,11.00
2019-03-17T05:16:23.752Z,10.92
2019-03-17T05:18:16.416Z,10.75
2019-03-17T05:19:16.310Z,10.69
2019-03-17T05:21:08.995Z,10.72
2019-03-17T05:22:08.866Z,10.73
2019-03-17T05:24:01.526Z,10.63
2019-03-17T05:25:01.422Z,10.67
2019-03-17T05:26:54.101Z,10.69
2019-03-17T05:27:53.967Z,10.63
2019-03-17T05:29:46.637Z,10.52
2019-03-17T05:30:46.523Z,10.59
2019-03-17T05:32:39.196Z,10.58
2019-03-17T05:33:39.070Z,10.42
2019-03-17T05:35:31.737Z,10.47
2019-03-17T05:36:31.622Z,10.51
2019-03-17T05:38:24.301Z,10.42
2019-03-17T05:39:24.191Z,10.44
2019-03-17T05:41:16.838Z,10.46
2019-03-17T05:42:16.724Z,10.46
2019-03-17T05:44:09.458Z,10.54
2019-03-17T05:45:09.284Z,10.44
2019-03-17T05:47:01.932Z,10.44
2019-03-17T05:48:01.824Z,10.39
2019-03-17T05:49:54.505Z,10.47
2019-03-17T05:50:54.376Z,10.47
2019-03-17T05:52:47.042Z,10.47
2019-03-17T05:53:46.934Z,10.51
2019-03-17T05:55:39.624Z,10.47
2019-03-17T05:56:39.488Z,10.42
2019-03-17T05:58:32.145Z,10.36
2019-03-17T05:59:32.032Z,10.47
2019-03-17T06:01:24.708Z,10.47
2019-03-17T06:02:24.579Z,10.51
2019-03-17T06:04:17.245Z,10.36
2019-03-17T06:05:17.129Z,10.35
2019-03-17T06:07:18.692Z,10.44
2019-03-17T06:08:09.696Z,10.39
2019-03-17T06:10:02.362Z,10.33
2019-03-17T06:11:02.249Z,10.33
2019-03-17T06:12:54.933Z,10.35
2019-03-17T06:13:54.794Z,10.33
2019-03-17T06:15:47.469Z,10.33
2019-03-17T06:16:47.360Z,10.35
2019-03-17T06:18:40.040Z,10.35
2019-03-17T06:19:39.911Z,10.32
2019-03-17T06:21:32.573Z,10.36
2019-03-17T06:22:32.462Z,10.35
2019-03-17T06:24:25.140Z,10.41
2019-03-17T06:25:25.010Z,10.36
2019-03-17T06:27:17.680Z,10.31
2019-03-17T06:28:17.557Z,10.28
2019-03-17T06:30:10.244Z,10.29
2019-03-17T06:31:10.120Z,10.26
2019-03-17T06:33:02.792Z,10.33
2019-03-17T06:34:02.676Z,10.31
2019-03-17T06:35:55.357Z,10.35
2019-03-17T06:36:55.222Z,10.38
2019-03-17T06:38:47.887Z,10.35
2019-03-17T06:39:47.777Z,10.47
2019-03-17T06:41:40.453Z,10.44
2019-03-17T06:42:40.334Z,10.49
2019-03-17T06:44:32.992Z,10.41
2019-03-17T06:45:32.894Z,10.46
2019-03-17T06:47:25.563Z,10.44
2019-03-17T06:48:25.430Z,10.47
2019-03-17T06:50:18.096Z,10.44
2019-03-17T06:51:17.980Z,10.44
2019-03-17T06:53:10.664Z,10.52
2019-03-17T06:54:10.535Z,10.49
2019-03-17T06:56:03.218Z,10.49
2019-03-17T06:57:03.153Z,10.39
2019-03-17T06:58:55.752Z,10.47
2019-03-17T06:59:55.632Z,10.47
2019-03-17T07:01:48.314Z,10.33
2019-03-17T07:02:48.182Z,10.36
2019-03-17T07:04:40.845Z,10.33
2019-03-17T07:05:40.740Z,10.35
2019-03-17T07:07:43.233Z,10.36
2019-03-17T07:08:33.286Z,10.32
2019-03-17T07:10:25.946Z,10.26
2019-03-17T07:11:25.859Z,10.25
2019-03-17T07:13:18.509Z,10.33
2019-03-17T07:14:18.382Z,10.35
2019-03-17T07:16:11.050Z,10.35
2019-03-17T07:17:10.934Z,10.33
2019-03-17T07:19:03.617Z,10.18
2019-03-17T07:20:03.490Z,10.21
2019-03-17T07:21:56.174Z,10.14
2019-03-17T07:22:56.037Z,10.10
2019-03-17T07:24:48.718Z,10.00
2019-03-17T07:25:48.603Z,9.96
2019-03-17T07:27:41.297Z,9.96
2019-03-17T07:28:41.172Z,9.92
2019-03-17T07:30:33.823Z,9.88
2019-03-17T07:31:33.707Z,9.75
2019-03-17T07:33:26.401Z,9.59
2019-03-17T07:34:26.277Z,9.39
2019-03-17T07:36:18.936Z,9.11
2019-03-17T07:37:18.820Z,9.04
2019-03-17T07:39:12.377Z,8.86
2019-03-17T07:40:11.380Z,8.83
2019-03-17T07:42:04.033Z,8.69
2019-03-17T07:43:03.932Z,8.69
2019-03-17T07:44:56.616Z,8.49
2019-03-17T07:45:56.495Z,8.46
2019-03-17T07:47:49.148Z,8.44
2019-03-17T07:48:49.044Z,8.49
2019-03-17T07:50:41.718Z,8.44
2019-03-17T07:51:41.591Z,8.32
2019-03-17T07:53:34.249Z,8.39
2019-03-17T07:54:35.163Z,8.46
2019-03-17T07:56:26.815Z,8.36
2019-03-17T07:57:26.689Z,8.29
2019-03-17T07:59:19.388Z,8.39
2019-03-17T08:00:30.937Z,8.39
2019-03-17T08:02:11.909Z,8.31
2019-03-17T08:03:11.797Z,8.39
2019-03-17T08:05:04.484Z,8.49
2019-03-17T08:06:04.357Z,8.44
2019-03-17T08:08:08.868Z,8.65
2019-03-17T08:08:56.911Z,8.76
2019-03-17T08:10:49.589Z,8.92
2019-03-17T08:11:49.457Z,8.94
2019-03-17T08:13:42.119Z,9.09
2019-03-17T08:14:42.008Z,8.94
2019-03-17T08:16:34.677Z,9.05
2019-03-17T08:17:34.552Z,9.03
2019-03-17T08:19:27.218Z,9.04
2019-03-17T08:20:27.103Z,9.30
2019-03-17T08:22:19.785Z,9.38
2019-03-17T08:23:19.658Z,9.47
2019-03-17T08:25:12.316Z,9.32
2019-03-17T08:26:12.205Z,9.45
2019-03-17T08:28:04.887Z,9.50
2019-03-17T08:29:04.756Z,9.35
2019-03-17T08:30:57.421Z,9.32
2019-03-17T08:31:57.308Z,9.30
2019-03-17T08:33:49.989Z,9.21
2019-03-17T08:34:49.858Z,9.23
2019-03-17T08:36:42.517Z,9.41
2019-03-17T08:37:42.407Z,9.34
2019-03-17T08:39:35.083Z,9.59
2019-03-17T08:40:34.989Z,9.64
2019-03-17T08:42:27.625Z,9.53
2019-03-17T08:43:27.518Z,9.63
2019-03-17T08:45:20.214Z,9.66
2019-03-17T08:46:20.085Z,9.92
2019-03-17T08:48:12.750Z,10.31
2019-03-17T08:49:12.637Z,10.46
2019-03-17T08:51:05.319Z,10.54
2019-03-17T08:52:05.194Z,10.67
2019-03-17T08:53:57.890Z,10.69
2019-03-17T08:54:57.748Z,10.84
2019-03-17T08:56:50.415Z,10.51
2019-03-17T08:57:50.304Z,10.35
2019-03-17T08:59:42.994Z,10.31
2019-03-17T09:00:42.861Z,10.57
2019-03-17T09:02:35.527Z,10.49
2019-03-17T09:03:35.415Z,10.36
2019-03-17T09:05:28.097Z,10.20
2019-03-17T09:06:27.975Z,10.14
2019-03-17T09:08:20.644Z,10.15
2019-03-17T09:09:20.539Z,10.20
2019-03-17T09:11:13.217Z,10.38
2019-03-17T09:12:13.090Z,10.32
2019-03-17T09:14:05.765Z,10.49
2019-03-17T09:15:05.652Z,10.36
2019-03-17T09:16:58.372Z,9.75
2019-03-17T09:17:58.204Z,9.81
2019-03-17T09:19:50.873Z,9.64
2019-03-17T09:20:50.760Z,9.78
2019-03-17T09:22:43.447Z,9.99
2019-03-17T09:23:43.316Z,9.99
2019-03-17T09:25:35.983Z,9.98
2019-03-17T09:26:35.871Z,9.98
2019-03-17T09:28:28.553Z,9.85
2019-03-17T09:29:28.436Z,10.03
2019-03-17T09:31:21.111Z,10.35
2019-03-17T09:32:20.988Z,10.46
2019-03-17T09:34:13.656Z,10.58
2019-03-17T09:35:13.539Z,10.51
2019-03-17T09:37:06.220Z,10.15
2019-03-17T09:38:06.093Z,9.75
2019-03-17T09:39:58.762Z,9.78
2019-03-17T09:40:58.651Z,10.03
2019-03-17T09:42:51.336Z,10.17
2019-03-17T09:43:51.225Z,10.33
2019-03-17T09:45:43.911Z,10.38
2019-03-17T09:46:43.765Z,10.41
2019-03-17T09:48:36.428Z,10.63
2019-03-17T09:49:36.327Z,10.52
2019-03-17T09:51:28.997Z,10.49
2019-03-17T09:52:28.879Z,10.63
2019-03-17T09:54:21.539Z,10.97
2019-03-17T09:55:21.434Z,11.09
2019-03-17T09:57:14.115Z,10.83
2019-03-17T09:58:13.991Z,10.69
2019-03-17T10:00:06.672Z,10.87
2019-03-17T10:01:06.549Z,10.97
2019-03-17T10:02:59.237Z,11.30
2019-03-17T10:03:59.106Z,11.31
2019-03-17T10:05:51.782Z,11.43
2019-03-17T10:06:51.671Z,11.45
2019-03-17T10:08:44.353Z,11.18
2019-03-17T10:09:44.225Z,11.23
2019-03-17T10:11:36.897Z,11.33
2019-03-17T10:12:36.803Z,11.39
2019-03-17T10:14:29.470Z,10.85
2019-03-17T10:15:29.347Z,10.77
2019-03-17T10:17:22.048Z,11.10
2019-03-17T10:18:21.903Z,11.03
2019-03-17T10:20:14.588Z,11.09
2019-03-17T10:21:14.559Z,11.10
2019-03-17T10:23:07.129Z,11.13
2019-03-17T10:24:07.019Z,11.27
2019-03-17T10:25:59.709Z,11.02
2019-03-17T10:26:59.578Z,10.88
2019-03-17T10:28:52.269Z,10.79
2019-03-17T10:29:52.140Z,10.80
2019-03-17T10:31:44.808Z,10.88
2019-03-17T10:32:44.699Z,10.91
2019-03-17T10:34:37.381Z,11.08
2019-03-17T10:35:37.255Z,11.06
2019-03-17T10:37:29.919Z,11.09
2019-03-17T10:38:29.813Z,11.06
2019-03-17T10:40:22.496Z,10.51
2019-03-17T10:41:22.368Z,10.18
2019-03-17T10:43:15.075Z,10.18
2019-03-17T10:44:14.961Z,10.38
2019-03-17T10:46:07.646Z,10.52
2019-03-17T10:47:07.518Z,10.49
2019-03-17T10:49:00.186Z,10.42
2019-03-17T10:50:00.067Z,10.35
2019-03-17T10:51:52.763Z,10.23
2019-03-17T10:52:52.625Z,9.85
2019-03-17T10:54:45.319Z,9.92
2019-03-17T10:55:45.189Z,9.96
2019-03-17T10:57:37.855Z,9.95
2019-03-17T10:58:37.739Z,9.95
2019-03-17T11:00:30.421Z,9.64
2019-03-17T11:01:30.300Z,9.75
2019-03-17T11:03:22.965Z,9.84
2019-03-17T11:04:22.850Z,9.77
2019-03-17T11:06:15.542Z,9.82
2019-03-17T11:07:15.403Z,9.93
2019-03-17T11:09:08.076Z,10.23
2019-03-17T11:10:07.967Z,10.32
2019-03-17T11:12:00.641Z,10.29
2019-03-17T11:13:00.513Z,10.31
2019-03-17T11:14:53.178Z,10.52
2019-03-17T11:15:53.071Z,10.36
2019-03-17T11:17:45.755Z,10.28
2019-03-17T11:18:45.634Z,10.44
2019-03-17T11:20:38.294Z,10.31
2019-03-17T11:21:38.184Z,10.33
2019-03-17T11:23:30.864Z,10.32
2019-03-17T11:24:30.742Z,10.44
2019-03-17T11:26:23.407Z,10.32
2019-03-17T11:27:23.294Z,10.18
2019-03-17T11:29:15.969Z,10.79
2019-03-17T11:30:15.852Z,11.10
2019-03-17T11:32:08.513Z,11.26
2019-03-17T11:33:08.405Z,11.46
2019-03-17T11:35:01.085Z,11.60
2019-03-17T11:36:00.962Z,11.78
2019-03-17T11:37:53.632Z,11.60
2019-03-17T11:38:53.523Z,11.66
2019-03-17T11:40:46.274Z,12.05
2019-03-17T11:41:46.077Z,12.13
2019-03-17T11:43:38.758Z,11.78
2019-03-17T11:44:38.640Z,11.70
2019-03-17T11:46:31.327Z,11.18
2019-03-17T11:47:31.195Z,10.87
2019-03-17T11:49:24.513Z,10.97
2019-03-17T11:50:23.763Z,10.69
2019-03-17T11:52:16.426Z,10.55
2019-03-17T11:53:16.314Z,10.47
2019-03-17T11:55:09.018Z,10.46
2019-03-17T11:56:08.898Z,10.32
2019-03-17T11:58:01.564Z,10.18
2019-03-17T11:59:01.451Z,10.18
2019-03-17T12:00:54.158Z,10.31
2019-03-17T12:01:54.012Z,10.03
2019-03-17T12:03:46.679Z,9.56
2019-03-17T12:04:46.585Z,9.67
2019-03-17T12:06:39.250Z,9.71
2019-03-17T12:07:39.136Z,9.74
2019-03-17T12:09:31.799Z,9.52
2019-03-17T12:10:31.680Z,9.80
2019-03-17T12:12:24.362Z,9.78
2019-03-17T12:13:24.231Z,9.67
2019-03-17T12:15:16.922Z,9.81
2019-03-17T12:16:16.787Z,9.85
2019-03-17T12:18:09.475Z,10.26
2019-03-17T12:19:09.343Z,10.33
2019-03-17T12:21:02.012Z,10.61
2019-03-17T12:22:08.965Z,10.59
2019-03-17T12:23:54.580Z,10.58
2019-03-17T12:24:54.452Z,10.63
2019-03-17T12:26:47.141Z,10.44
2019-03-17T12:27:47.011Z,10.57
2019-03-17T12:29:39.928Z,10.61
2019-03-17T12:30:39.561Z,10.65
2019-03-17T12:32:32.247Z,10.73
2019-03-17T12:33:32.127Z,10.83
2019-03-17T12:35:24.782Z,10.83
2019-03-17T12:36:24.671Z,10.94
2019-03-17T12:38:17.395Z,10.92
2019-03-17T12:39:17.316Z,11.09
2019-03-17T12:41:09.933Z,10.94
2019-03-17T12:42:09.827Z,10.75
2019-03-17T12:44:02.521Z,10.98
2019-03-17T12:45:02.483Z,10.91
2019-03-17T12:46:55.059Z,10.83
2019-03-17T12:47:54.939Z,10.98
2019-03-17T12:49:47.634Z,11.08
2019-03-17T12:50:47.506Z,11.10
2019-03-17T12:52:40.172Z,11.08
2019-03-17T12:53:40.069Z,11.03
2019-03-17T12:55:32.814Z,11.30
2019-03-17T12:56:32.629Z,11.33
2019-03-17T12:58:25.291Z,11.75
2019-03-17T12:59:25.177Z,11.84
2019-03-17T13:01:17.860Z,12.18
2019-03-17T13:02:17.739Z,12.31
2019-03-17T13:04:10.405Z,12.47
2019-03-17T13:05:10.289Z,12.70
2019-03-17T13:07:02.982Z,12.77
2019-03-17T13:08:02.850Z,12.76
2019-03-17T13:09:55.545Z,12.96
2019-03-17T13:10:55.643Z,12.73
2019-03-17T13:12:48.076Z,12.59
2019-03-17T13:13:47.971Z,12.28
2019-03-17T13:15:40.708Z,11.81
2019-03-17T13:16:40.533Z,11.73
2019-03-17T13:18:33.204Z,11.08
2019-03-17T13:19:33.089Z,11.03
2019-03-17T13:21:25.776Z,10.94
2019-03-17T13:22:25.840Z,10.83
2019-03-17T13:24:18.322Z,10.47
2019-03-17T13:25:18.206Z,10.21
2019-03-17T13:27:10.885Z,9.95
2019-03-17T13:28:10.759Z,9.95
2019-03-17T13:30:03.419Z,9.74
2019-03-17T13:31:03.310Z,9.53
2019-03-17T13:32:55.994Z,9.48
2019-03-17T13:33:55.865Z,9.42
2019-03-17T13:35:48.528Z,9.24
2019-03-17T13:36:48.419Z,9.26
2019-03-17T13:38:41.096Z,9.17
2019-03-17T13:39:40.968Z,9.14
2019-03-17T13:41:33.635Z,9.21
2019-03-17T13:42:34.016Z,9.12
2019-03-17T13:44:26.197Z,9.09
2019-03-17T13:45:26.070Z,9.04
2019-03-17T13:47:18.736Z,9.30
2019-03-17T13:48:18.618Z,9.34
2019-03-17T13:50:11.307Z,9.44
2019-03-17T13:51:11.180Z,9.45
2019-03-17T13:53:03.889Z,9.53
2019-03-17T13:54:03.747Z,9.63
2019-03-17T13:55:56.417Z,9.93
2019-03-17T13:56:56.311Z,10.15
2019-03-17T13:58:48.985Z,10.05
2019-03-17T13:59:48.856Z,9.84
2019-03-17T14:01:41.525Z,9.81
2019-03-17T14:02:41.419Z,9.81
2019-03-17T14:04:34.104Z,9.98
2019-03-17T14:05:33.973Z,9.95
2019-03-17T14:07:26.637Z,10.32
2019-03-17T14:08:26.539Z,10.54
2019-03-17T14:10:19.211Z,10.83
2019-03-17T14:11:19.088Z,10.77
2019-03-17T14:13:11.751Z,10.95
2019-03-17T14:14:11.646Z,11.00
2019-03-17T14:16:04.321Z,10.72
2019-03-17T14:17:04.203Z,10.84
2019-03-17T14:18:56.858Z,10.80
2019-03-17T14:19:56.748Z,10.90
2019-03-17T14:21:49.431Z,10.94
2019-03-17T14:22:49.695Z,10.92
2019-03-17T14:24:41.970Z,10.91
2019-03-17T14:25:41.858Z,11.00
2019-03-17T14:27:34.795Z,10.95
2019-03-17T14:28:34.407Z,10.94
2019-03-17T14:30:27.072Z,10.91
2019-03-17T14:31:26.962Z,10.85
2019-03-17T14:33:19.648Z,10.69
2019-03-17T14:34:19.517Z,10.69
2019-03-17T14:36:12.205Z,10.58
2019-03-17T14:37:12.072Z,10.49
2019-03-17T14:39:04.732Z,10.52
2019-03-17T14:40:04.630Z,10.33
2019-03-17T14:41:57.315Z,10.26
2019-03-17T14:42:57.289Z,10.31
2019-03-17T14:44:49.859Z,10.25
2019-03-17T14:45:49.752Z,10.26
2019-03-17T14:47:42.420Z,10.21
2019-03-17T14:48:42.296Z,10.47
2019-03-17T14:50:34.960Z,10.54
2019-03-17T14:51:34.846Z,10.57
2019-03-17T14:53:27.527Z,10.57
2019-03-17T14:54:27.405Z,10.59
2019-03-17T14:56:20.068Z,10.65
2019-03-17T14:57:19.958Z,10.51
2019-03-17T14:59:12.731Z,10.65
2019-03-17T15:00:12.513Z,10.54
2019-03-17T15:02:05.175Z,10.47
2019-03-17T15:03:05.066Z,10.36
2019-03-17T15:04:57.749Z,10.65
2019-03-17T15:05:57.621Z,10.65
2019-03-17T15:07:50.349Z,10.67
2019-03-17T15:08:50.178Z,10.84
2019-03-17T15:10:42.844Z,10.91
2019-03-17T15:11:42.736Z,10.80
2019-03-17T15:13:35.418Z,10.69
2019-03-17T15:14:35.290Z,10.75
2019-03-17T15:16:27.963Z,10.49
2019-03-17T15:17:27.846Z,10.38
2019-03-17T15:19:20.527Z,10.38
2019-03-17T15:20:20.407Z,10.13
2019-03-17T15:22:13.063Z,9.82
2019-03-17T15:23:12.962Z,9.67
2019-03-17T15:25:05.639Z,9.56
2019-03-17T15:26:05.521Z,9.67
2019-03-17T15:27:58.178Z,9.63
2019-03-17T15:28:58.069Z,9.55
2019-03-17T15:31:05.592Z,9.72
2019-03-17T15:31:50.630Z,9.75
2019-03-17T15:33:43.283Z,9.85
2019-03-17T15:34:43.177Z,9.85
2019-03-17T15:36:35.852Z,9.84
2019-03-17T15:37:35.724Z,9.85
2019-03-17T15:39:28.386Z,9.98
2019-03-17T15:40:28.285Z,10.00
2019-03-17T15:42:20.957Z,10.08
2019-03-17T15:43:20.833Z,9.96
2019-03-17T15:45:13.524Z,10.05
2019-03-17T15:46:13.389Z,10.02
2019-03-17T15:48:06.071Z,9.95
2019-03-17T15:49:05.945Z,9.88
2019-03-17T15:50:58.605Z,9.96
2019-03-17T15:51:58.503Z,9.84
2019-03-17T15:53:51.173Z,9.98
2019-03-17T15:54:51.049Z,9.95
2019-03-17T15:56:43.742Z,9.95
2019-03-17T15:57:43.622Z,9.90
2019-03-17T15:59:36.277Z,9.74
2019-03-17T16:00:36.160Z,9.67
2019-03-17T16:02:28.847Z,9.11
2019-03-17T16:03:28.711Z,9.03
2019-03-17T16:05:21.382Z,8.89
2019-03-17T16:06:21.261Z,8.83
2019-03-17T16:08:13.942Z,8.60
2019-03-17T16:09:13.819Z,8.57
2019-03-17T16:11:06.483Z,8.62
2019-03-17T16:12:06.365Z,8.65
2019-03-17T16:13:59.043Z,8.62
2019-03-17T16:14:58.921Z,8.69
2019-03-17T16:16:51.576Z,8.74
2019-03-17T16:17:51.468Z,8.87
2019-03-17T16:19:44.144Z,8.74
2019-03-17T16:20:44.020Z,8.68
2019-03-17T16:22:36.682Z,8.76
2019-03-17T16:23:36.568Z,8.85
2019-03-17T16:25:29.247Z,8.94
2019-03-17T16:26:29.124Z,8.90
2019-03-17T16:28:21.785Z,8.94
2019-03-17T16:29:21.672Z,9.00
2019-03-17T16:31:14.349Z,9.01
2019-03-17T16:32:14.226Z,9.03
2019-03-17T16:34:06.990Z,9.00
2019-03-17T16:35:06.854Z,9.05
2019-03-17T16:36:59.515Z,9.00
2019-03-17T16:37:59.404Z,9.03
2019-03-17T16:39:52.084Z,9.04
2019-03-17T16:40:51.950Z,9.05
2019-03-17T16:42:44.635Z,9.00
2019-03-17T16:43:44.502Z,9.05
2019-03-17T16:45:37.182Z,9.21
2019-03-17T16:46:37.050Z,9.12
2019-03-17T16:48:29.723Z,9.05
2019-03-17T16:49:29.610Z,9.08
2019-03-17T16:51:22.286Z,9.03
2019-03-17T16:52:22.179Z,9.09
2019-03-17T16:54:14.817Z,9.20
2019-03-17T16:55:14.766Z,9.04
2019-03-17T16:57:07.383Z,9.12
2019-03-17T16:58:07.257Z,9.03
2019-03-17T16:59:59.914Z,9.09
2019-03-17T17:01:00.007Z,9.05
2019-03-17T17:02:52.487Z,9.01
2019-03-17T17:03:52.349Z,9.12
2019-03-17T17:05:45.009Z,9.04
2019-03-17T17:06:44.900Z,9.09
2019-03-17T17:08:37.571Z,9.05
2019-03-17T17:09:37.444Z,9.08
2019-03-17T17:11:30.156Z,9.12
2019-03-17T17:12:29.994Z,9.09
2019-03-17T17:14:22.667Z,9.03
2019-03-17T17:15:22.551Z,9.04
2019-03-17T17:17:15.234Z,9.04
2019-03-17T17:18:15.105Z,9.11
2019-03-17T17:20:07.767Z,8.98
2019-03-17T17:21:07.654Z,9.04
2019-03-17T17:23:00.334Z,8.97
2019-03-17T17:24:00.204Z,9.08
2019-03-17T17:25:53.011Z,8.89
2019-03-17T17:26:52.897Z,8.89
2019-03-17T17:28:45.577Z,8.82
2019-03-17T17:29:45.442Z,8.76
2019-03-17T17:31:38.100Z,8.69
2019-03-17T17:32:37.994Z,8.62
2019-03-17T17:34:30.666Z,8.64
2019-03-17T17:35:30.540Z,8.62
2019-03-17T17:37:23.216Z,8.61
2019-03-17T17:38:23.092Z,8.61
2019-03-17T17:40:15.744Z,8.64
2019-03-17T17:41:15.631Z,8.53
2019-03-17T17:43:08.307Z,8.54
2019-03-17T17:44:08.179Z,8.53
2019-03-17T17:46:00.838Z,8.52
2019-03-17T17:47:00.722Z,8.57
2019-03-17T17:48:53.403Z,8.46
2019-03-17T17:49:53.279Z,8.40
2019-03-17T17:51:45.970Z,8.40
2019-03-17T17:52:45.831Z,8.26
2019-03-17T17:54:38.508Z,8.34
2019-03-17T17:55:38.383Z,8.31
2019-03-17T17:57:31.038Z,8.32
2019-03-17T17:58:30.923Z,8.31
2019-03-17T18:00:23.599Z,8.34
2019-03-17T18:01:23.476Z,8.31
2019-03-17T18:03:16.129Z,8.21
2019-03-17T18:04:16.184Z,8.22
2019-03-17T18:06:08.700Z,8.24
2019-03-17T18:07:08.570Z,8.21
2019-03-17T18:09:01.219Z,8.22
2019-03-17T18:10:01.109Z,8.07
2019-03-17T18:11:53.789Z,8.14
2019-03-17T18:12:53.658Z,8.13
2019-03-17T18:14:46.315Z,8.21
2019-03-17T18:15:46.197Z,8.24
2019-03-17T18:17:38.877Z,8.09
2019-03-17T18:18:38.748Z,8.09
2019-03-17T18:20:31.407Z,8.09
2019-03-17T18:21:31.296Z,8.06
2019-03-17T18:23:23.972Z,8.09
2019-03-17T18:24:23.839Z,8.06
2019-03-17T18:26:16.525Z,8.04
2019-03-17T18:27:18.200Z,8.09
2019-03-17T18:29:09.040Z,7.89
2019-03-17T18:30:08.929Z,7.99
2019-03-17T18:32:01.598Z,7.88
2019-03-17T18:33:01.472Z,7.89
2019-03-17T18:34:54.213Z,7.96
2019-03-17T18:35:54.015Z,7.86
2019-03-17T18:37:46.718Z,7.92
2019-03-17T18:38:46.570Z,7.82
2019-03-17T18:40:39.220Z,7.78
2019-03-17T18:41:39.118Z,7.68
2019-03-17T18:43:31.782Z,7.74
2019-03-17T18:44:31.655Z,7.74
2019-03-17T18:46:24.315Z,7.63
2019-03-17T18:47:24.224Z,7.68
2019-03-17T18:49:16.873Z,7.68
2019-03-17T18:50:20.677Z,7.77
2019-03-17T18:52:09.420Z,7.78
2019-03-17T18:53:09.292Z,7.75
2019-03-17T18:55:02.008Z,7.56
2019-03-17T18:56:01.841Z,7.67
2019-03-17T18:57:54.504Z,7.61
2019-03-17T18:58:54.381Z,7.59
2019-03-17T19:00:47.060Z,7.64
2019-03-17T19:01:46.925Z,7.61
2019-03-17T19:03:39.585Z,7.68
2019-03-17T19:04:39.495Z,7.63
2019-03-17T19:06:32.211Z,7.58
2019-03-17T19:07:32.091Z,7.63
2019-03-17T19:09:24.759Z,7.54
2019-03-17T19:10:24.622Z,7.67
2019-03-17T19:12:17.282Z,7.52
2019-03-17T19:13:17.166Z,7.54
2019-03-17T19:15:09.842Z,7.47
2019-03-17T19:16:09.707Z,7.68
2019-03-17T19:18:02.378Z,7.51
2019-03-17T19:19:02.261Z,7.58
2019-03-17T19:20:54.935Z,7.54
2019-03-17T19:21:54.811Z,7.55
2019-03-17T19:23:47.465Z,7.45
2019-03-17T19:24:47.354Z,7.56
2019-03-17T19:26:40.101Z,7.58
2019-03-17T19:27:39.897Z,7.58
2019-03-17T19:29:32.558Z,7.47
2019-03-17T19:30:32.449Z,7.44
2019-03-17T19:32:25.244Z,7.44
2019-03-17T19:33:24.990Z,7.48
2019-03-17T19:35:17.648Z,7.41
2019-03-17T19:36:17.539Z,7.51
2019-03-17T19:38:10.231Z,7.44
2019-03-17T19:39:10.115Z,7.41
2019-03-17T19:41:02.775Z,7.34
2019-03-17T19:42:02.654Z,7.41
2019-03-17T19:43:55.326Z,7.41
2019-03-17T19:44:55.198Z,7.44
2019-03-17T19:46:47.854Z,7.34
2019-03-17T19:47:47.744Z,7.29
2019-03-17T19:49:40.410Z,7.31
2019-03-17T19:50:40.295Z,7.30
2019-03-17T19:52:32.940Z,7.36
2019-03-17T19:53:32.826Z,7.29
2019-03-17T19:55:25.514Z,7.26
2019-03-17T19:56:25.370Z,7.27
2019-03-17T19:58:18.053Z,7.15
2019-03-17T19:59:17.921Z,7.12
2019-03-17T20:01:10.576Z,7.15
2019-03-17T20:02:10.463Z,7.16
2019-03-17T20:04:03.138Z,7.18
2019-03-17T20:05:03.006Z,7.13
2019-03-17T20:06:55.660Z,7.13
2019-03-17T20:07:55.547Z,7.13
2019-03-17T20:09:48.233Z,7.11
2019-03-17T20:10:48.198Z,7.08
2019-03-17T20:12:40.774Z,6.98
2019-03-17T20:13:40.654Z,7.01
2019-03-17T20:15:33.331Z,7.01
2019-03-17T20:16:33.206Z,6.94
2019-03-17T20:18:25.855Z,6.94
2019-03-17T20:19:25.739Z,6.97
2019-03-17T20:21:18.422Z,6.95
2019-03-17T20:22:18.288Z,6.90
2019-03-17T20:24:10.949Z,6.86
2019-03-17T20:25:10.841Z,6.83
2019-03-17T20:27:03.510Z,6.80
2019-03-17T20:28:03.381Z,6.79
2019-03-17T20:29:56.045Z,6.78
2019-03-17T20:30:55.932Z,6.76
2019-03-17T20:32:48.606Z,6.78
2019-03-17T20:33:48.472Z,6.78
2019-03-17T20:35:41.132Z,6.64
2019-03-17T20:36:41.019Z,6.65
2019-03-17T20:38:33.700Z,6.64
2019-03-17T20:39:33.568Z,6.67
2019-03-17T20:41:26.413Z,6.68
2019-03-17T20:42:26.151Z,6.61
2019-03-17T20:44:18.773Z,6.57
2019-03-17T20:45:20.326Z,6.67
2019-03-17T20:47:11.331Z,6.62
2019-03-17T20:48:11.265Z,6.61
2019-03-17T20:50:03.862Z,6.65
2019-03-17T20:51:03.745Z,6.58
2019-03-17T20:52:56.429Z,6.57
2019-03-17T20:53:56.291Z,6.62
2019-03-17T20:55:48.948Z,6.55
2019-03-17T20:56:48.836Z,6.58
2019-03-17T20:58:41.527Z,6.62
2019-03-17T20:59:41.387Z,6.57
2019-03-17T21:01:34.071Z,6.55
2019-03-17T21:02:33.934Z,6.58
2019-03-17T21:04:26.610Z,6.60
2019-03-17T21:05:26.480Z,6.60
2019-03-17T21:07:19.141Z,6.55
2019-03-17T21:08:19.030Z,6.52
2019-03-17T21:10:11.705Z,6.54
2019-03-17T21:11:11.576Z,6.46
2019-03-17T21:13:04.232Z,6.44
2019-03-17T21:14:04.135Z,6.47
2019-03-17T21:15:56.794Z,6.44
2019-03-17T21:16:56.658Z,6.39
2019-03-17T21:18:49.318Z,6.26
2019-03-17T21:19:49.237Z,6.44
2019-03-17T21:21:41.891Z,6.25
2019-03-17T21:22:41.761Z,6.28
2019-03-17T21:24:34.412Z,6.24
2019-03-17T21:25:34.301Z,6.15
2019-03-17T21:27:26.972Z,6.10
2019-03-17T21:28:27.798Z,6.15
2019-03-17T21:30:19.510Z,6.09
2019-03-17T21:31:19.387Z,6.06
2019-03-17T21:33:12.119Z,6.03
2019-03-17T21:34:11.936Z,6.00
2019-03-17T21:36:04.589Z,5.99
2019-03-17T21:37:04.482Z,6.02
2019-03-17T21:38:57.155Z,5.98
2019-03-17T21:39:57.028Z,5.98
2019-03-17T21:41:49.704Z,6.02
2019-03-17T21:42:49.571Z,5.87
2019-03-17T21:44:42.224Z,5.88
2019-03-17T21:45:42.114Z,5.89
2019-03-17T21:47:34.787Z,5.92
2019-03-17T21:48:34.754Z,5.89
2019-03-17T21:50:27.321Z,5.95
2019-03-17T21:51:27.207Z,5.95
2019-03-17T21:53:19.875Z,5.85
2019-03-17T21:54:19.750Z,5.85
2019-03-17T21:56:12.419Z,5.89
2019-03-17T21:57:12.307Z,5.87
2019-03-17T21:59:05.141Z,5.92
2019-03-17T22:00:04.862Z,5.82
2019-03-17T22:01:57.538Z,5.85
2019-03-17T22:02:57.401Z,5.92
2019-03-17T22:04:50.061Z,5.98
2019-03-17T22:05:49.950Z,5.99
2019-03-17T22:07:49.271Z,5.96
2019-03-17T22:08:42.509Z,5.96
2019-03-17T22:10:35.150Z,5.89
2019-03-17T22:11:35.054Z,5.92
2019-03-17T22:13:27.706Z,5.91
2019-03-17T22:14:27.579Z,5.82
2019-03-17T22:16:20.238Z,5.91
2019-03-17T22:17:20.140Z,5.82
2019-03-17T22:19:12.803Z,5.89
2019-03-17T22:20:12.678Z,5.80
2019-03-17T22:22:05.360Z,5.82
2019-03-17T22:23:05.219Z,5.85
2019-03-17T22:24:57.901Z,5.87
2019-03-17T22:25:57.776Z,5.87
2019-03-17T22:27:50.468Z,5.73
2019-03-17T22:28:50.330Z,5.72
2019-03-17T22:30:43.005Z,5.73
2019-03-17T22:31:43.022Z,5.70
2019-03-17T22:33:35.593Z,5.72
2019-03-17T22:34:35.455Z,5.75
2019-03-17T22:36:28.158Z,5.66
2019-03-17T22:37:28.000Z,5.64
2019-03-17T22:39:20.805Z,5.60
2019-03-17T22:40:20.621Z,5.64
2019-03-17T22:42:13.297Z,5.59
2019-03-17T22:43:13.214Z,5.55
2019-03-17T22:45:05.903Z,5.51
2019-03-17T22:46:05.744Z,5.55
2019-03-17T22:47:58.450Z,5.55
2019-03-17T22:48:58.316Z,5.55
2019-03-17T22:50:51.009Z,5.54
2019-03-17T22:51:50.866Z,5.49
2019-03-17T22:53:44.040Z,5.52
2019-03-17T22:54:43.901Z,5.57
2019-03-17T22:56:37.053Z,5.49
2019-03-17T22:57:36.936Z,5.44
2019-03-17T22:59:29.618Z,5.44
